Portada
METAR-TAF:

METAR-TAF

Aeroports :

Seward, Alaska, Estats Units d'Amèrica

latitud: 60-07N, longitud: 149-27W, altitud: 9 m

Observació

L'informe es va fer fa 6 minuts, a les 10:04 UTC
Vent 3 kt del Nord/Nord-Oest
Temperatura -1°C
Humitat 100%
Pressió 993 hPa
Visibilitat: 16.1 km
Cel ennuvolat a una alçada de 1800 ft

METAR: PAWD 221004Z AUTO 33003KT 10SM BKN018 M01/M01 A2932 RMK AO2 T10061006 TSNO $

Hora: 02:10 (10:10 UTC)


TAF: manca

Observacions i pronòstics meteorològics de més de 4000 aeroports (METAR i TAF).

Les estacions disponibles són els punts grocs i vermells al mapa.

Posi el ratolí al punt desitjat per veure el nom de l'estació.

Feu clic per veure les observacions i els pronòstics meteorològics.

Per canviar el mapa: feu clic els botons verds amb una creu de color negre per apropar; al botó verd amb un guió per allunyar la imatge; o en les fletxes verdes per a mapes adjacents.


METAR-TAF: